sensor_id;sensor_type;location;lat;lon;timestamp;temperature;humidity
20740;DHT22;10530;49.968;19.844;2022-08-19T00:04:39;19.30;99.90
20740;DHT22;10530;49.968;19.844;2022-08-19T00:09:42;19.20;99.90
20740;DHT22;10530;49.968;19.844;2022-08-19T00:14:45;18.90;99.90
20740;DHT22;10530;49.968;19.844;2022-08-19T00:19:48;18.80;99.90
20740;DHT22;10530;49.968;19.844;2022-08-19T00:24:51;18.70;99.90
20740;DHT22;10530;49.968;19.844;2022-08-19T00:29:54;18.60;99.90
20740;DHT22;10530;49.968;19.844;2022-08-19T00:34:56;18.50;99.90
20740;DHT22;10530;49.968;19.844;2022-08-19T00:39:59;18.50;99.90
20740;DHT22;10530;49.968;19.844;2022-08-19T00:45:04;18.50;99.90
20740;DHT22;10530;49.968;19.844;2022-08-19T00:50:13;18.40;99.90
20740;DHT22;10530;49.968;19.844;2022-08-19T00:55:23;18.40;99.90
20740;DHT22;10530;49.968;19.844;2022-08-19T01:00:28;18.30;99.90
20740;DHT22;10530;49.968;19.844;2022-08-19T01:05:31;18.20;99.90
20740;DHT22;10530;49.968;19.844;2022-08-19T01:10:39;18.20;99.90
20740;DHT22;10530;49.968;19.844;2022-08-19T01:15:46;18.30;99.90
20740;DHT22;10530;49.968;19.844;2022-08-19T01:20:51;18.10;99.90
20740;DHT22;10530;49.968;19.844;2022-08-19T01:25:54;17.90;99.90
20740;DHT22;10530;49.968;19.844;2022-08-19T01:31:00;17.90;99.90
20740;DHT22;10530;49.968;19.844;2022-08-19T01:36:12;17.70;99.90
20740;DHT22;10530;49.968;19.844;2022-08-19T01:41:18;17.80;99.90
20740;DHT22;10530;49.968;19.844;2022-08-19T01:46:20;17.80;99.90
20740;DHT22;10530;49.968;19.844;2022-08-19T01:51:27;17.60;99.90
20740;DHT22;10530;49.968;19.844;2022-08-19T01:56:39;17.60;99.90
20740;DHT22;10530;49.968;19.844;2022-08-19T02:01:43;17.60;99.90
20740;DHT22;10530;49.968;19.844;2022-08-19T02:06:46;17.70;99.90
20740;DHT22;10530;49.968;19.844;2022-08-19T02:11:48;17.60;99.90
20740;DHT22;10530;49.968;19.844;2022-08-19T02:16:51;17.60;99.90
20740;DHT22;10530;49.968;19.844;2022-08-19T02:21:54;17.50;99.90
20740;DHT22;10530;49.968;19.844;2022-08-19T02:26:57;17.50;99.90
20740;DHT22;10530;49.968;19.844;2022-08-19T02:32:01;17.40;99.90
20740;DHT22;10530;49.968;19.844;2022-08-19T02:37:04;17.40;99.90
20740;DHT22;10530;49.968;19.844;2022-08-19T02:42:06;17.40;99.90
20740;DHT22;10530;49.968;19.844;2022-08-19T02:47:10;17.40;99.90
20740;DHT22;10530;49.968;19.844;2022-08-19T02:52:12;17.40;99.90
20740;DHT22;10530;49.968;19.844;2022-08-19T02:57:16;17.30;99.90
20740;DHT22;10530;49.968;19.844;2022-08-19T03:02:19;17.20;99.90
20740;DHT22;10530;49.968;19.844;2022-08-19T03:07:22;17.20;99.90
20740;DHT22;10530;49.968;19.844;2022-08-19T03:12:24;17.20;99.90
20740;DHT22;10530;49.968;19.844;2022-08-19T03:17:27;17.30;99.90
20740;DHT22;10530;49.968;19.844;2022-08-19T03:22:30;17.20;99.90
20740;DHT22;10530;49.968;19.844;2022-08-19T03:27:33;17.10;99.90
20740;DHT22;10530;49.968;19.844;2022-08-19T03:32:36;17.20;99.90
20740;DHT22;10530;49.968;19.844;2022-08-19T03:37:59;17.30;99.90
20740;DHT22;10530;49.968;19.844;2022-08-19T03:43:01;17.30;99.90
20740;DHT22;10530;49.968;19.844;2022-08-19T03:48:05;17.20;99.90
20740;DHT22;10530;49.968;19.844;2022-08-19T03:53:07;17.30;99.90
20740;DHT22;10530;49.968;19.844;2022-08-19T03:58:11;17.30;99.90
20740;DHT22;10530;49.968;19.844;2022-08-19T04:03:14;17.20;99.90
20740;DHT22;10530;49.968;19.844;2022-08-19T04:08:16;17.30;99.90
20740;DHT22;10530;49.968;19.844;2022-08-19T04:13:22;17.30;99.90
20740;DHT22;10530;49.968;19.844;2022-08-19T04:18:25;17.40;99.90
20740;DHT22;10530;49.968;19.844;2022-08-19T04:23:28;17.50;99.90
20740;DHT22;10530;49.968;19.844;2022-08-19T04:28:30;17.50;99.90
20740;DHT22;10530;49.968;19.844;2022-08-19T04:33:35;17.60;99.90
20740;DHT22;10530;49.968;19.844;2022-08-19T04:38:37;17.70;99.90
20740;DHT22;10530;49.968;19.844;2022-08-19T04:43:40;17.90;99.90
20740;DHT22;10530;49.968;19.844;2022-08-19T04:48:43;18.10;99.90
20740;DHT22;10530;49.968;19.844;2022-08-19T04:53:51;18.40;99.90
20740;DHT22;10530;49.968;19.844;2022-08-19T04:58:56;18.50;99.90
20740;DHT22;10530;49.968;19.844;2022-08-19T05:04:00;18.80;99.90
20740;DHT22;10530;49.968;19.844;2022-08-19T05:09:05;19.00;99.90
20740;DHT22;10530;49.968;19.844;2022-08-19T05:14:08;19.40;99.90
20740;DHT22;10530;49.968;19.844;2022-08-19T05:19:12;19.90;99.90
20740;DHT22;10530;49.968;19.844;2022-08-19T05:24:35;20.20;99.90
20740;DHT22;10530;49.968;19.844;2022-08-19T05:29:58;20.70;99.90
20740;DHT22;10530;49.968;19.844;2022-08-19T05:35:02;21.20;99.90
20740;DHT22;10530;49.968;19.844;2022-08-19T05:40:05;21.50;99.90
20740;DHT22;10530;49.968;19.844;2022-08-19T05:45:09;21.90;99.90
20740;DHT22;10530;49.968;19.844;2022-08-19T05:50:14;22.40;99.90
20740;DHT22;10530;49.968;19.844;2022-08-19T05:55:18;22.70;99.90
20740;DHT22;10530;49.968;19.844;2022-08-19T06:00:22;23.00;99.90
20740;DHT22;10530;49.968;19.844;2022-08-19T06:05:26;23.50;99.90
20740;DHT22;10530;49.968;19.844;2022-08-19T06:10:28;23.90;99.90
20740;DHT22;10530;49.968;19.844;2022-08-19T06:15:32;24.20;99.90
20740;DHT22;10530;49.968;19.844;2022-08-19T06:20:35;24.50;99.90
20740;DHT22;10530;49.968;19.844;2022-08-19T06:25:57;24.90;99.90
20740;DHT22;10530;49.968;19.844;2022-08-19T06:31:06;24.90;99.90
20740;DHT22;10530;49.968;19.844;2022-08-19T06:36:21;25.30;99.90
20740;DHT22;10530;49.968;19.844;2022-08-19T06:41:28;25.30;99.90
20740;DHT22;10530;49.968;19.844;2022-08-19T06:46:31;25.50;99.90
20740;DHT22;10530;49.968;19.844;2022-08-19T06:51:37;25.70;99.90
20740;DHT22;10530;49.968;19.844;2022-08-19T06:56:46;25.80;99.90
20740;DHT22;10530;49.968;19.844;2022-08-19T07:01:51;26.10;99.90
20740;DHT22;10530;49.968;19.844;2022-08-19T07:07:02;26.40;99.90
20740;DHT22;10530;49.968;19.844;2022-08-19T07:12:21;26.50;99.90
20740;DHT22;10530;49.968;19.844;2022-08-19T07:17:25;26.70;99.90
20740;DHT22;10530;49.968;19.844;2022-08-19T07:22:28;27.00;99.90
20740;DHT22;10530;49.968;19.844;2022-08-19T07:27:31;27.10;99.90
20740;DHT22;10530;49.968;19.844;2022-08-19T07:32:34;27.40;99.90
20740;DHT22;10530;49.968;19.844;2022-08-19T07:37:38;27.60;99.90
20740;DHT22;10530;49.968;19.844;2022-08-19T07:42:42;27.80;99.90
20740;DHT22;10530;49.968;19.844;2022-08-19T07:47:45;27.90;99.90
20740;DHT22;10530;49.968;19.844;2022-08-19T07:52:52;28.10;99.90
20740;DHT22;10530;49.968;19.844;2022-08-19T07:57:55;28.20;99.90
20740;DHT22;10530;49.968;19.844;2022-08-19T08:02:58;28.70;99.90
20740;DHT22;10530;49.968;19.844;2022-08-19T08:08:01;29.10;99.90
20740;DHT22;10530;49.968;19.844;2022-08-19T08:13:36;29.60;99.90
20740;DHT22;10530;49.968;19.844;2022-08-19T08:18:40;29.60;99.90
20740;DHT22;10530;49.968;19.844;2022-08-19T08:23:52;30.40;99.90
20740;DHT22;10530;49.968;19.844;2022-08-19T08:28:58;30.80;99.90
20740;DHT22;10530;49.968;19.844;2022-08-19T08:34:01;31.60;99.90
20740;DHT22;10530;49.968;19.844;2022-08-19T08:39:04;31.60;99.90
20740;DHT22;10530;49.968;19.844;2022-08-19T08:44:14;32.10;99.90
20740;DHT22;10530;49.968;19.844;2022-08-19T08:54:55;32.30;99.90
20740;DHT22;10530;49.968;19.844;2022-08-19T09:00:03;32.70;99.90
20740;DHT22;10530;49.968;19.844;2022-08-19T09:05:18;33.50;99.90
20740;DHT22;10530;49.968;19.844;2022-08-19T09:10:50;33.80;99.90
20740;DHT22;10530;49.968;19.844;2022-08-19T09:16:13;33.30;99.90
20740;DHT22;10530;49.968;19.844;2022-08-19T09:21:18;34.20;99.90
20740;DHT22;10530;49.968;19.844;2022-08-19T09:26:27;34.10;99.90
20740;DHT22;10530;49.968;19.844;2022-08-19T09:31:50;35.10;98.70
20740;DHT22;10530;49.968;19.844;2022-08-19T09:36:53;35.20;96.20
20740;DHT22;10530;49.968;19.844;2022-08-19T09:41:57;35.70;92.50
20740;DHT22;10530;49.968;19.844;2022-08-19T09:47:00;36.50;90.10
20740;DHT22;10530;49.968;19.844;2022-08-19T09:52:04;36.20;90.00
20740;DHT22;10530;49.968;19.844;2022-08-19T09:57:08;35.90;84.80
20740;DHT22;10530;49.968;19.844;2022-08-19T10:02:11;36.20;71.80
20740;DHT22;10530;49.968;19.844;2022-08-19T10:07:14;36.00;68.70
20740;DHT22;10530;49.968;19.844;2022-08-19T10:12:18;35.50;68.80
20740;DHT22;10530;49.968;19.844;2022-08-19T10:17:23;36.20;77.20
20740;DHT22;10530;49.968;19.844;2022-08-19T10:22:32;37.40;76.40
20740;DHT22;10530;49.968;19.844;2022-08-19T10:27:38;36.70;73.90
20740;DHT22;10530;49.968;19.844;2022-08-19T10:32:41;35.70;62.40
20740;DHT22;10530;49.968;19.844;2022-08-19T10:37:47;35.70;64.60
20740;DHT22;10530;49.968;19.844;2022-08-19T10:43:03;35.30;76.70
20740;DHT22;10530;49.968;19.844;2022-08-19T10:48:06;36.30;69.00
20740;DHT22;10530;49.968;19.844;2022-08-19T10:53:13;36.60;73.80
20740;DHT22;10530;49.968;19.844;2022-08-19T10:58:18;36.80;68.30
20740;DHT22;10530;49.968;19.844;2022-08-19T11:03:26;37.10;63.80
20740;DHT22;10530;49.968;19.844;2022-08-19T11:08:31;37.30;65.70
20740;DHT22;10530;49.968;19.844;2022-08-19T11:13:37;36.90;64.40
20740;DHT22;10530;49.968;19.844;2022-08-19T11:18:46;37.70;59.20
20740;DHT22;10530;49.968;19.844;2022-08-19T11:23:51;37.70;55.40
20740;DHT22;10530;49.968;19.844;2022-08-19T11:28:54;37.50;60.10
20740;DHT22;10530;49.968;19.844;2022-08-19T11:33:59;37.90;60.30
20740;DHT22;10530;49.968;19.844;2022-08-19T11:39:06;37.90;59.20
20740;DHT22;10530;49.968;19.844;2022-08-19T11:44:09;37.40;56.90
20740;DHT22;10530;49.968;19.844;2022-08-19T11:49:14;37.00;56.30
20740;DHT22;10530;49.968;19.844;2022-08-19T11:54:17;37.70;62.10
20740;DHT22;10530;49.968;19.844;2022-08-19T11:59:20;37.40;52.20
20740;DHT22;10530;49.968;19.844;2022-08-19T12:04:23;37.60;54.20
20740;DHT22;10530;49.968;19.844;2022-08-19T12:09:26;37.70;49.20
20740;DHT22;10530;49.968;19.844;2022-08-19T12:14:32;37.80;53.40
20740;DHT22;10530;49.968;19.844;2022-08-19T12:19:37;37.60;51.30
20740;DHT22;10530;49.968;19.844;2022-08-19T12:24:40;37.90;47.50
20740;DHT22;10530;49.968;19.844;2022-08-19T12:29:43;37.90;46.70
20740;DHT22;10530;49.968;19.844;2022-08-19T12:34:45;37.60;46.00
20740;DHT22;10530;49.968;19.844;2022-08-19T12:39:49;38.30;46.20
20740;DHT22;10530;49.968;19.844;2022-08-19T12:44:52;37.70;48.80
20740;DHT22;10530;49.968;19.844;2022-08-19T12:49:55;37.60;46.00
20740;DHT22;10530;49.968;19.844;2022-08-19T12:54:59;37.00;44.00
20740;DHT22;10530;49.968;19.844;2022-08-19T13:00:08;37.90;42.80
20740;DHT22;10530;49.968;19.844;2022-08-19T13:05:18;37.40;39.90
20740;DHT22;10530;49.968;19.844;2022-08-19T13:10:31;37.90;39.40
20740;DHT22;10530;49.968;19.844;2022-08-19T13:15:39;37.50;38.30
20740;DHT22;10530;49.968;19.844;2022-08-19T13:20:42;37.40;39.90
20740;DHT22;10530;49.968;19.844;2022-08-19T13:26:01;37.50;38.10
20740;DHT22;10530;49.968;19.844;2022-08-19T13:31:05;37.10;39.00
20740;DHT22;10530;49.968;19.844;2022-08-19T13:36:27;37.00;37.90
20740;DHT22;10530;49.968;19.844;2022-08-19T13:41:30;36.70;38.50
20740;DHT22;10530;49.968;19.844;2022-08-19T13:46:33;37.00;37.30
20740;DHT22;10530;49.968;19.844;2022-08-19T13:51:38;36.50;38.90
20740;DHT22;10530;49.968;19.844;2022-08-19T13:56:45;36.90;39.60
20740;DHT22;10530;49.968;19.844;2022-08-19T14:01:48;37.20;36.10
20740;DHT22;10530;49.968;19.844;2022-08-19T14:06:51;37.20;38.00
20740;DHT22;10530;49.968;19.844;2022-08-19T14:11:53;37.00;38.90
20740;DHT22;10530;49.968;19.844;2022-08-19T14:16:56;36.30;39.20
20740;DHT22;10530;49.968;19.844;2022-08-19T14:21:59;36.40;42.60
20740;DHT22;10530;49.968;19.844;2022-08-19T14:27:03;36.90;44.80
20740;DHT22;10530;49.968;19.844;2022-08-19T14:32:06;36.90;42.30
20740;DHT22;10530;49.968;19.844;2022-08-19T14:37:17;35.80;40.80
20740;DHT22;10530;49.968;19.844;2022-08-19T14:42:20;35.60;45.60
20740;DHT22;10530;49.968;19.844;2022-08-19T14:47:23;36.20;45.30
20740;DHT22;10530;49.968;19.844;2022-08-19T14:52:26;36.20;45.20
20740;DHT22;10530;49.968;19.844;2022-08-19T14:57:30;35.90;47.80
20740;DHT22;10530;49.968;19.844;2022-08-19T15:02:32;35.00;46.80
20740;DHT22;10530;49.968;19.844;2022-08-19T15:07:37;34.90;47.60
20740;DHT22;10530;49.968;19.844;2022-08-19T15:12:41;34.50;48.10
20740;DHT22;10530;49.968;19.844;2022-08-19T15:17:46;34.60;53.80
20740;DHT22;10530;49.968;19.844;2022-08-19T15:22:49;34.70;51.80
20740;DHT22;10530;49.968;19.844;2022-08-19T15:27:52;34.10;50.40
20740;DHT22;10530;49.968;19.844;2022-08-19T15:32:56;34.30;52.00
20740;DHT22;10530;49.968;19.844;2022-08-19T15:38:00;34.00;52.40
20740;DHT22;10530;49.968;19.844;2022-08-19T15:43:03;34.20;58.60
20740;DHT22;10530;49.968;19.844;2022-08-19T15:48:05;34.00;54.00
20740;DHT22;10530;49.968;19.844;2022-08-19T15:53:09;33.30;56.20
20740;DHT22;10530;49.968;19.844;2022-08-19T15:58:13;33.30;58.00
20740;DHT22;10530;49.968;19.844;2022-08-19T16:03:35;32.80;59.50
20740;DHT22;10530;49.968;19.844;2022-08-19T16:08:58;32.00;60.50
20740;DHT22;10530;49.968;19.844;2022-08-19T16:14:03;31.60;64.50
20740;DHT22;10530;49.968;19.844;2022-08-19T16:19:08;31.40;67.70
20740;DHT22;10530;49.968;19.844;2022-08-19T16:24:15;31.10;72.10
20740;DHT22;10530;49.968;19.844;2022-08-19T16:29:18;30.90;75.50
20740;DHT22;10530;49.968;19.844;2022-08-19T16:34:39;30.50;78.40
20740;DHT22;10530;49.968;19.844;2022-08-19T16:39:43;30.30;93.00
20740;DHT22;10530;49.968;19.844;2022-08-19T16:44:46;30.10;87.70
20740;DHT22;10530;49.968;19.844;2022-08-19T16:49:49;29.80;95.90
20740;DHT22;10530;49.968;19.844;2022-08-19T16:54:55;29.60;97.40
20740;DHT22;10530;49.968;19.844;2022-08-19T16:59:59;29.50;96.80
20740;DHT22;10530;49.968;19.844;2022-08-19T17:05:07;29.50;98.10
20740;DHT22;10530;49.968;19.844;2022-08-19T17:10:10;29.40;99.90
20740;DHT22;10530;49.968;19.844;2022-08-19T17:15:12;29.20;99.90
20740;DHT22;10530;49.968;19.844;2022-08-19T17:20:15;29.00;99.90
20740;DHT22;10530;49.968;19.844;2022-08-19T17:25:18;28.90;99.90
20740;DHT22;10530;49.968;19.844;2022-08-19T17:30:21;28.70;99.90
20740;DHT22;10530;49.968;19.844;2022-08-19T17:35:24;28.50;99.90
20740;DHT22;10530;49.968;19.844;2022-08-19T17:40:28;28.50;99.90
20740;DHT22;10530;49.968;19.844;2022-08-19T17:45:34;28.40;99.90
20740;DHT22;10530;49.968;19.844;2022-08-19T17:50:38;28.20;99.90
20740;DHT22;10530;49.968;19.844;2022-08-19T17:55:41;28.30;99.90
20740;DHT22;10530;49.968;19.844;2022-08-19T18:00:49;28.30;99.90
20740;DHT22;10530;49.968;19.844;2022-08-19T18:05:55;28.30;99.90
20740;DHT22;10530;49.968;19.844;2022-08-19T18:10:59;28.30;99.90
20740;DHT22;10530;49.968;19.844;2022-08-19T18:16:03;28.30;99.90
20740;DHT22;10530;49.968;19.844;2022-08-19T18:21:12;28.20;99.90
20740;DHT22;10530;49.968;19.844;2022-08-19T18:26:16;28.20;99.90
20740;DHT22;10530;49.968;19.844;2022-08-19T18:31:19;28.10;99.90
20740;DHT22;10530;49.968;19.844;2022-08-19T18:36:22;28.10;99.90
20740;DHT22;10530;49.968;19.844;2022-08-19T18:41:46;27.90;99.90
20740;DHT22;10530;49.968;19.844;2022-08-19T18:47:07;27.50;99.90
20740;DHT22;10530;49.968;19.844;2022-08-19T18:52:29;26.70;99.90
20740;DHT22;10530;49.968;19.844;2022-08-19T18:57:32;25.70;99.90
20740;DHT22;10530;49.968;19.844;2022-08-19T19:02:36;25.20;99.90
20740;DHT22;10530;49.968;19.844;2022-08-19T19:07:42;24.80;99.90
20740;DHT22;10530;49.968;19.844;2022-08-19T19:12:45;24.40;99.90
20740;DHT22;10530;49.968;19.844;2022-08-19T19:17:51;24.30;99.90
20740;DHT22;10530;49.968;19.844;2022-08-19T19:22:55;24.10;99.90
20740;DHT22;10530;49.968;19.844;2022-08-19T19:27:59;24.00;99.90
20740;DHT22;10530;49.968;19.844;2022-08-19T19:33:02;23.90;99.90
20740;DHT22;10530;49.968;19.844;2022-08-19T19:38:05;23.80;99.90
20740;DHT22;10530;49.968;19.844;2022-08-19T19:43:08;23.70;99.90
20740;DHT22;10530;49.968;19.844;2022-08-19T19:48:11;23.60;99.90
20740;DHT22;10530;49.968;19.844;2022-08-19T19:53:17;23.60;99.90
20740;DHT22;10530;49.968;19.844;2022-08-19T19:58:21;23.50;99.90
20740;DHT22;10530;49.968;19.844;2022-08-19T20:03:31;23.30;99.90
20740;DHT22;10530;49.968;19.844;2022-08-19T20:08:34;23.10;99.90
20740;DHT22;10530;49.968;19.844;2022-08-19T20:13:56;23.10;99.90
20740;DHT22;10530;49.968;19.844;2022-08-19T20:19:00;22.90;99.90
20740;DHT22;10530;49.968;19.844;2022-08-19T20:24:03;22.80;99.90
20740;DHT22;10530;49.968;19.844;2022-08-19T20:29:12;22.70;99.90
20740;DHT22;10530;49.968;19.844;2022-08-19T20:34:35;22.70;99.90
20740;DHT22;10530;49.968;19.844;2022-08-19T20:39:38;22.50;99.90
20740;DHT22;10530;49.968;19.844;2022-08-19T20:44:42;22.40;99.90
20740;DHT22;10530;49.968;19.844;2022-08-19T20:49:45;22.40;99.90
20740;DHT22;10530;49.968;19.844;2022-08-19T20:54:47;22.30;99.90
20740;DHT22;10530;49.968;19.844;2022-08-19T20:59:50;22.40;99.90
20740;DHT22;10530;49.968;19.844;2022-08-19T21:04:53;22.40;99.90
20740;DHT22;10530;49.968;19.844;2022-08-19T21:10:01;22.30;99.90
20740;DHT22;10530;49.968;19.844;2022-08-19T21:15:06;22.20;99.90
20740;DHT22;10530;49.968;19.844;2022-08-19T21:20:09;22.10;99.90
20740;DHT22;10530;49.968;19.844;2022-08-19T21:25:12;22.10;99.90
20740;DHT22;10530;49.968;19.844;2022-08-19T21:30:15;22.10;99.90
20740;DHT22;10530;49.968;19.844;2022-08-19T21:35:18;22.10;99.90
20740;DHT22;10530;49.968;19.844;2022-08-19T21:40:22;21.90;99.90
20740;DHT22;10530;49.968;19.844;2022-08-19T21:45:25;21.90;99.90
20740;DHT22;10530;49.968;19.844;2022-08-19T21:50:28;21.90;99.90
20740;DHT22;10530;49.968;19.844;2022-08-19T21:55:33;21.90;99.90
20740;DHT22;10530;49.968;19.844;2022-08-19T22:00:36;21.90;99.90
20740;DHT22;10530;49.968;19.844;2022-08-19T22:05:40;21.70;99.90
20740;DHT22;10530;49.968;19.844;2022-08-19T22:10:42;21.80;99.90
20740;DHT22;10530;49.968;19.844;2022-08-19T22:15:49;21.80;99.90
20740;DHT22;10530;49.968;19.844;2022-08-19T22:20:53;21.70;99.90
20740;DHT22;10530;49.968;19.844;2022-08-19T22:25:56;21.70;99.90
20740;DHT22;10530;49.968;19.844;2022-08-19T22:30:59;21.70;99.90
20740;DHT22;10530;49.968;19.844;2022-08-19T22:36:05;21.70;99.90
20740;DHT22;10530;49.968;19.844;2022-08-19T22:41:11;21.50;99.90
20740;DHT22;10530;49.968;19.844;2022-08-19T22:46:14;21.30;99.90
20740;DHT22;10530;49.968;19.844;2022-08-19T22:51:18;21.20;99.90
20740;DHT22;10530;49.968;19.844;2022-08-19T22:56:40;21.00;99.90
20740;DHT22;10530;49.968;19.844;2022-08-19T23:01:43;21.00;99.90
20740;DHT22;10530;49.968;19.844;2022-08-19T23:06:45;20.90;99.90
20740;DHT22;10530;49.968;19.844;2022-08-19T23:11:48;20.90;99.90
20740;DHT22;10530;49.968;19.844;2022-08-19T23:16:52;20.80;99.90
20740;DHT22;10530;49.968;19.844;2022-08-19T23:22:00;20.70;99.90
20740;DHT22;10530;49.968;19.844;2022-08-19T23:27:03;20.60;99.90
20740;DHT22;10530;49.968;19.844;2022-08-19T23:32:38;20.60;99.90
20740;DHT22;10530;49.968;19.844;2022-08-19T23:37:42;20.50;99.90
20740;DHT22;10530;49.968;19.844;2022-08-19T23:42:44;20.50;99.90
20740;DHT22;10530;49.968;19.844;2022-08-19T23:47:47;20.40;99.90
20740;DHT22;10530;49.968;19.844;2022-08-19T23:52:57;20.20;99.90
20740;DHT22;10530;49.968;19.844;2022-08-19T23:58:02;20.10;99.90
